sensor_id;sensor_type;location;lat;lon;timestamp;P1;durP1;ratioP1;P2;durP2;ratioP2
54899;SDS011;40801;41.924;25.562;2022-12-29T00:01:20;21.55;;;17.63;;
54899;SDS011;40801;41.924;25.562;2022-12-29T00:03:46;18.60;;;16.58;;
54899;SDS011;40801;41.924;25.562;2022-12-29T00:06:11;18.00;;;16.30;;
54899;SDS011;40801;41.924;25.562;2022-12-29T00:08:37;27.67;;;18.30;;
54899;SDS011;40801;41.924;25.562;2022-12-29T00:11:06;20.10;;;17.92;;
54899;SDS011;40801;41.924;25.562;2022-12-29T00:13:39;29.65;;;22.48;;
54899;SDS011;40801;41.924;25.562;2022-12-29T00:16:23;23.02;;;19.38;;
54899;SDS011;40801;41.924;25.562;2022-12-29T00:18:49;19.75;;;17.65;;
54899;SDS011;40801;41.924;25.562;2022-12-29T00:21:16;18.00;;;16.13;;
54899;SDS011;40801;41.924;25.562;2022-12-29T00:24:02;20.67;;;17.45;;
54899;SDS011;40801;41.924;25.562;2022-12-29T00:26:39;21.58;;;18.48;;
54899;SDS011;40801;41.924;25.562;2022-12-29T00:29:24;21.38;;;16.73;;
54899;SDS011;40801;41.924;25.562;2022-12-29T00:32:09;21.98;;;18.08;;
54899;SDS011;40801;41.924;25.562;2022-12-29T00:34:53;19.05;;;16.63;;
54899;SDS011;40801;41.924;25.562;2022-12-29T00:37:40;23.38;;;19.98;;
54899;SDS011;40801;41.924;25.562;2022-12-29T00:40:29;17.10;;;15.07;;
54899;SDS011;40801;41.924;25.562;2022-12-29T00:43:13;21.15;;;17.58;;
54899;SDS011;40801;41.924;25.562;2022-12-29T00:45:56;23.58;;;19.02;;
54899;SDS011;40801;41.924;25.562;2022-12-29T00:48:22;16.85;;;15.07;;
54899;SDS011;40801;41.924;25.562;2022-12-29T00:51:06;17.02;;;14.70;;
54899;SDS011;40801;41.924;25.562;2022-12-29T00:53:32;22.10;;;15.10;;
54899;SDS011;40801;41.924;25.562;2022-12-29T00:55:58;16.45;;;14.85;;
54899;SDS011;40801;41.924;25.562;2022-12-29T00:58:27;19.00;;;15.70;;
54899;SDS011;40801;41.924;25.562;2022-12-29T01:01:00;18.17;;;14.73;;
54899;SDS011;40801;41.924;25.562;2022-12-29T01:03:29;18.20;;;15.95;;
54899;SDS011;40801;41.924;25.562;2022-12-29T01:05:55;17.40;;;14.88;;
54899;SDS011;40801;41.924;25.562;2022-12-29T01:08:21;15.85;;;14.25;;
54899;SDS011;40801;41.924;25.562;2022-12-29T01:10:46;17.83;;;15.95;;
54899;SDS011;40801;41.924;25.562;2022-12-29T01:13:11;16.95;;;15.23;;
54899;SDS011;40801;41.924;25.562;2022-12-29T01:15:37;17.27;;;15.55;;
54899;SDS011;40801;41.924;25.562;2022-12-29T01:18:02;15.60;;;14.10;;
54899;SDS011;40801;41.924;25.562;2022-12-29T01:20:28;17.92;;;16.08;;
54899;SDS011;40801;41.924;25.562;2022-12-29T01:22:53;17.60;;;15.82;;
54899;SDS011;40801;41.924;25.562;2022-12-29T01:25:19;22.50;;;15.85;;
54899;SDS011;40801;41.924;25.562;2022-12-29T01:27:44;23.63;;;16.45;;
54899;SDS011;40801;41.924;25.562;2022-12-29T01:30:10;20.17;;;17.80;;
54899;SDS011;40801;41.924;25.562;2022-12-29T01:32:35;19.48;;;17.08;;
54899;SDS011;40801;41.924;25.562;2022-12-29T01:35:01;19.60;;;17.60;;
54899;SDS011;40801;41.924;25.562;2022-12-29T01:37:26;19.48;;;16.15;;
54899;SDS011;40801;41.924;25.562;2022-12-29T01:39:52;17.58;;;15.68;;
54899;SDS011;40801;41.924;25.562;2022-12-29T01:42:18;25.25;;;18.67;;
54899;SDS011;40801;41.924;25.562;2022-12-29T01:44:54;19.45;;;17.42;;
54899;SDS011;40801;41.924;25.562;2022-12-29T01:50:03;19.80;;;17.30;;
54899;SDS011;40801;41.924;25.562;2022-12-29T01:52:32;26.33;;;19.65;;
54899;SDS011;40801;41.924;25.562;2022-12-29T01:55:00;20.25;;;18.13;;
54899;SDS011;40801;41.924;25.562;2022-12-29T01:57:29;22.30;;;17.30;;
54899;SDS011;40801;41.924;25.562;2022-12-29T02:00:06;22.52;;;19.25;;
54899;SDS011;40801;41.924;25.562;2022-12-29T02:02:34;19.88;;;17.83;;
54899;SDS011;40801;41.924;25.562;2022-12-29T02:05:01;19.42;;;16.40;;
54899;SDS011;40801;41.924;25.562;2022-12-29T02:07:32;23.05;;;15.93;;
54899;SDS011;40801;41.924;25.562;2022-12-29T02:09:57;16.00;;;14.30;;
54899;SDS011;40801;41.924;25.562;2022-12-29T02:12:25;17.88;;;15.32;;
54899;SDS011;40801;41.924;25.562;2022-12-29T02:14:53;18.77;;;16.77;;
54899;SDS011;40801;41.924;25.562;2022-12-29T02:33:40;15.75;;;14.15;;
54899;SDS011;40801;41.924;25.562;2022-12-29T02:36:25;16.10;;;14.38;;
54899;SDS011;40801;41.924;25.562;2022-12-29T02:50:37;15.80;;;14.18;;
54899;SDS011;40801;41.924;25.562;2022-12-29T02:53:09;19.25;;;16.13;;
54899;SDS011;40801;41.924;25.562;2022-12-29T02:55:38;20.55;;;17.10;;
54899;SDS011;40801;41.924;25.562;2022-12-29T02:58:20;18.45;;;14.55;;
54899;SDS011;40801;41.924;25.562;2022-12-29T03:03:45;17.92;;;12.52;;
54899;SDS011;40801;41.924;25.562;2022-12-29T03:18:02;36.42;;;26.42;;
54899;SDS011;40801;41.924;25.562;2022-12-29T03:20:38;47.85;;;38.05;;
54899;SDS011;40801;41.924;25.562;2022-12-29T03:23:08;18.70;;;16.90;;
54899;SDS011;40801;41.924;25.562;2022-12-29T03:25:36;22.52;;;20.10;;
54899;SDS011;40801;41.924;25.562;2022-12-29T03:28:39;21.05;;;18.67;;
54899;SDS011;40801;41.924;25.562;2022-12-29T03:31:00;15.70;;;13.40;;
54899;SDS011;40801;41.924;25.562;2022-12-29T03:33:28;17.95;;;15.88;;
54899;SDS011;40801;41.924;25.562;2022-12-29T03:35:57;31.70;;;26.48;;
54899;SDS011;40801;41.924;25.562;2022-12-29T03:38:46;27.92;;;20.05;;
54899;SDS011;40801;41.924;25.562;2022-12-29T03:41:23;17.40;;;15.50;;
54899;SDS011;40801;41.924;25.562;2022-12-29T03:43:53;34.72;;;30.83;;
54899;SDS011;40801;41.924;25.562;2022-12-29T03:46:18;24.58;;;20.05;;
54899;SDS011;40801;41.924;25.562;2022-12-29T03:48:44;30.42;;;26.80;;
54899;SDS011;40801;41.924;25.562;2022-12-29T03:51:09;21.05;;;16.02;;
54899;SDS011;40801;41.924;25.562;2022-12-29T03:53:35;36.83;;;29.48;;
54899;SDS011;40801;41.924;25.562;2022-12-29T03:56:00;36.15;;;26.88;;
54899;SDS011;40801;41.924;25.562;2022-12-29T03:58:25;25.95;;;21.35;;
54899;SDS011;40801;41.924;25.562;2022-12-29T04:00:51;23.85;;;18.40;;
54899;SDS011;40801;41.924;25.562;2022-12-29T04:03:16;18.48;;;16.55;;
54899;SDS011;40801;41.924;25.562;2022-12-29T04:05:42;50.83;;;45.47;;
54899;SDS011;40801;41.924;25.562;2022-12-29T04:08:07;49.40;;;41.33;;
54899;SDS011;40801;41.924;25.562;2022-12-29T04:10:32;38.03;;;30.05;;
54899;SDS011;40801;41.924;25.562;2022-12-29T04:12:58;30.85;;;26.05;;
54899;SDS011;40801;41.924;25.562;2022-12-29T04:15:23;22.42;;;18.75;;
54899;SDS011;40801;41.924;25.562;2022-12-29T04:17:49;29.35;;;24.70;;
54899;SDS011;40801;41.924;25.562;2022-12-29T04:20:14;27.08;;;22.10;;
54899;SDS011;40801;41.924;25.562;2022-12-29T04:22:59;30.52;;;24.10;;
54899;SDS011;40801;41.924;25.562;2022-12-29T04:25:31;24.67;;;20.35;;
54899;SDS011;40801;41.924;25.562;2022-12-29T04:27:58;19.75;;;16.00;;
54899;SDS011;40801;41.924;25.562;2022-12-29T04:30:23;150.07;;;125.45;;
54899;SDS011;40801;41.924;25.562;2022-12-29T04:32:49;48.17;;;40.22;;
54899;SDS011;40801;41.924;25.562;2022-12-29T04:35:14;21.52;;;19.33;;
54899;SDS011;40801;41.924;25.562;2022-12-29T04:37:40;22.45;;;19.75;;
54899;SDS011;40801;41.924;25.562;2022-12-29T04:40:05;21.98;;;18.33;;
54899;SDS011;40801;41.924;25.562;2022-12-29T04:42:31;25.23;;;22.10;;
54899;SDS011;40801;41.924;25.562;2022-12-29T04:44:57;20.20;;;16.42;;
54899;SDS011;40801;41.924;25.562;2022-12-29T04:47:22;21.67;;;19.48;;
54899;SDS011;40801;41.924;25.562;2022-12-29T04:49:47;48.42;;;34.08;;
54899;SDS011;40801;41.924;25.562;2022-12-29T04:52:13;54.80;;;40.55;;
54899;SDS011;40801;41.924;25.562;2022-12-29T04:54:38;25.05;;;18.63;;
54899;SDS011;40801;41.924;25.562;2022-12-29T04:57:04;33.50;;;25.45;;
54899;SDS011;40801;41.924;25.562;2022-12-29T04:59:30;48.13;;;42.80;;
54899;SDS011;40801;41.924;25.562;2022-12-29T05:01:55;29.40;;;26.15;;
54899;SDS011;40801;41.924;25.562;2022-12-29T05:04:20;20.92;;;18.65;;
54899;SDS011;40801;41.924;25.562;2022-12-29T05:06:46;22.13;;;19.83;;
54899;SDS011;40801;41.924;25.562;2022-12-29T05:09:11;23.67;;;19.80;;
54899;SDS011;40801;41.924;25.562;2022-12-29T05:11:37;24.00;;;21.27;;
54899;SDS011;40801;41.924;25.562;2022-12-29T05:14:02;25.95;;;22.23;;
54899;SDS011;40801;41.924;25.562;2022-12-29T05:16:27;22.10;;;19.92;;
54899;SDS011;40801;41.924;25.562;2022-12-29T05:18:53;24.67;;;20.13;;
54899;SDS011;40801;41.924;25.562;2022-12-29T05:21:18;21.23;;;18.95;;
54899;SDS011;40801;41.924;25.562;2022-12-29T05:23:43;24.23;;;21.77;;
54899;SDS011;40801;41.924;25.562;2022-12-29T05:26:09;24.50;;;22.08;;
54899;SDS011;40801;41.924;25.562;2022-12-29T05:28:34;25.85;;;21.92;;
54899;SDS011;40801;41.924;25.562;2022-12-29T05:31:00;26.33;;;23.73;;
54899;SDS011;40801;41.924;25.562;2022-12-29T05:33:25;23.95;;;20.92;;
54899;SDS011;40801;41.924;25.562;2022-12-29T05:35:50;23.83;;;20.88;;
54899;SDS011;40801;41.924;25.562;2022-12-29T05:38:16;27.92;;;23.20;;
54899;SDS011;40801;41.924;25.562;2022-12-29T05:40:42;24.17;;;21.45;;
54899;SDS011;40801;41.924;25.562;2022-12-29T05:43:08;27.08;;;22.75;;
54899;SDS011;40801;41.924;25.562;2022-12-29T05:45:33;22.75;;;19.42;;
54899;SDS011;40801;41.924;25.562;2022-12-29T05:47:58;30.98;;;25.42;;
54899;SDS011;40801;41.924;25.562;2022-12-29T05:50:24;28.40;;;22.42;;
54899;SDS011;40801;41.924;25.562;2022-12-29T05:52:49;26.60;;;23.80;;
54899;SDS011;40801;41.924;25.562;2022-12-29T05:55:16;35.70;;;31.67;;
54899;SDS011;40801;41.924;25.562;2022-12-29T05:57:41;29.55;;;26.35;;
54899;SDS011;40801;41.924;25.562;2022-12-29T06:00:06;27.92;;;25.00;;
54899;SDS011;40801;41.924;25.562;2022-12-29T06:02:33;32.15;;;27.05;;
54899;SDS011;40801;41.924;25.562;2022-12-29T06:04:58;38.25;;;32.20;;
54899;SDS011;40801;41.924;25.562;2022-12-29T06:07:23;36.90;;;32.05;;
54899;SDS011;40801;41.924;25.562;2022-12-29T06:09:49;35.38;;;29.58;;
54899;SDS011;40801;41.924;25.562;2022-12-29T06:12:14;31.83;;;27.75;;
54899;SDS011;40801;41.924;25.562;2022-12-29T06:14:40;28.90;;;25.70;;
54899;SDS011;40801;41.924;25.562;2022-12-29T06:17:05;33.97;;;26.70;;
54899;SDS011;40801;41.924;25.562;2022-12-29T06:19:31;26.83;;;24.02;;
54899;SDS011;40801;41.924;25.562;2022-12-29T06:21:56;28.27;;;25.25;;
54899;SDS011;40801;41.924;25.562;2022-12-29T06:24:22;36.75;;;29.55;;
54899;SDS011;40801;41.924;25.562;2022-12-29T06:26:47;31.35;;;27.95;;
54899;SDS011;40801;41.924;25.562;2022-12-29T06:29:12;41.00;;;36.60;;
54899;SDS011;40801;41.924;25.562;2022-12-29T06:31:41;36.60;;;30.57;;
54899;SDS011;40801;41.924;25.562;2022-12-29T06:34:08;44.05;;;34.55;;
54899;SDS011;40801;41.924;25.562;2022-12-29T06:36:34;42.05;;;33.08;;
54899;SDS011;40801;41.924;25.562;2022-12-29T06:38:59;32.70;;;29.25;;
54899;SDS011;40801;41.924;25.562;2022-12-29T06:41:24;36.30;;;30.63;;
54899;SDS011;40801;41.924;25.562;2022-12-29T06:43:50;28.63;;;25.65;;
54899;SDS011;40801;41.924;25.562;2022-12-29T06:46:15;31.13;;;27.35;;
54899;SDS011;40801;41.924;25.562;2022-12-29T06:48:40;30.88;;;26.60;;
54899;SDS011;40801;41.924;25.562;2022-12-29T06:51:07;28.35;;;24.75;;
54899;SDS011;40801;41.924;25.562;2022-12-29T06:53:33;32.88;;;27.65;;
54899;SDS011;40801;41.924;25.562;2022-12-29T06:55:58;30.67;;;27.33;;
54899;SDS011;40801;41.924;25.562;2022-12-29T06:58:23;34.80;;;28.98;;
54899;SDS011;40801;41.924;25.562;2022-12-29T07:00:49;48.35;;;39.67;;
54899;SDS011;40801;41.924;25.562;2022-12-29T07:03:14;38.67;;;32.45;;
54899;SDS011;40801;41.924;25.562;2022-12-29T07:05:39;38.22;;;31.60;;
54899;SDS011;40801;41.924;25.562;2022-12-29T07:08:05;35.38;;;31.58;;
54899;SDS011;40801;41.924;25.562;2022-12-29T07:10:31;33.25;;;29.40;;
54899;SDS011;40801;41.924;25.562;2022-12-29T07:12:56;31.70;;;28.33;;
54899;SDS011;40801;41.924;25.562;2022-12-29T07:15:21;27.70;;;24.52;;
54899;SDS011;40801;41.924;25.562;2022-12-29T07:17:47;29.73;;;25.77;;
54899;SDS011;40801;41.924;25.562;2022-12-29T07:20:14;30.95;;;25.83;;
54899;SDS011;40801;41.924;25.562;2022-12-29T07:22:39;28.90;;;23.52;;
54899;SDS011;40801;41.924;25.562;2022-12-29T07:25:05;25.55;;;22.98;;
54899;SDS011;40801;41.924;25.562;2022-12-29T07:27:30;28.05;;;24.83;;
54899;SDS011;40801;41.924;25.562;2022-12-29T07:29:56;32.35;;;28.50;;
54899;SDS011;40801;41.924;25.562;2022-12-29T07:32:21;28.65;;;25.45;;
54899;SDS011;40801;41.924;25.562;2022-12-29T07:34:47;30.13;;;26.83;;
54899;SDS011;40801;41.924;25.562;2022-12-29T07:37:12;33.60;;;26.60;;
54899;SDS011;40801;41.924;25.562;2022-12-29T07:39:40;33.35;;;22.58;;
54899;SDS011;40801;41.924;25.562;2022-12-29T07:42:05;26.35;;;22.95;;
54899;SDS011;40801;41.924;25.562;2022-12-29T07:44:30;27.42;;;22.67;;
54899;SDS011;40801;41.924;25.562;2022-12-29T07:46:56;25.30;;;22.65;;
54899;SDS011;40801;41.924;25.562;2022-12-29T07:49:21;36.00;;;32.10;;
54899;SDS011;40801;41.924;25.562;2022-12-29T07:51:47;26.25;;;22.85;;
54899;SDS011;40801;41.924;25.562;2022-12-29T07:54:12;31.45;;;28.02;;
54899;SDS011;40801;41.924;25.562;2022-12-29T07:56:38;30.52;;;27.27;;
54899;SDS011;40801;41.924;25.562;2022-12-29T07:59:03;41.92;;;37.60;;
54899;SDS011;40801;41.924;25.562;2022-12-29T08:01:29;29.20;;;23.42;;
54899;SDS011;40801;41.924;25.562;2022-12-29T08:03:54;25.52;;;22.70;;
54899;SDS011;40801;41.924;25.562;2022-12-29T08:06:20;32.08;;;28.35;;
54899;SDS011;40801;41.924;25.562;2022-12-29T08:08:45;34.33;;;30.15;;
54899;SDS011;40801;41.924;25.562;2022-12-29T08:11:10;34.25;;;30.85;;
54899;SDS011;40801;41.924;25.562;2022-12-29T08:13:38;27.70;;;23.65;;
54899;SDS011;40801;41.924;25.562;2022-12-29T08:16:04;25.33;;;22.67;;
54899;SDS011;40801;41.924;25.562;2022-12-29T08:18:30;25.95;;;23.33;;
54899;SDS011;40801;41.924;25.562;2022-12-29T08:21:00;28.92;;;26.02;;
54899;SDS011;40801;41.924;25.562;2022-12-29T08:23:26;28.08;;;25.20;;
54899;SDS011;40801;41.924;25.562;2022-12-29T08:26:02;23.70;;;21.10;;
54899;SDS011;40801;41.924;25.562;2022-12-29T08:28:30;33.88;;;28.10;;
54899;SDS011;40801;41.924;25.562;2022-12-29T08:30:59;25.83;;;23.00;;
54899;SDS011;40801;41.924;25.562;2022-12-29T08:33:26;22.30;;;20.00;;
54899;SDS011;40801;41.924;25.562;2022-12-29T08:35:52;23.92;;;21.42;;
54899;SDS011;40801;41.924;25.562;2022-12-29T08:38:17;24.73;;;22.20;;
54899;SDS011;40801;41.924;25.562;2022-12-29T08:40:43;28.17;;;25.35;;
54899;SDS011;40801;41.924;25.562;2022-12-29T08:43:08;24.55;;;22.15;;
54899;SDS011;40801;41.924;25.562;2022-12-29T08:45:34;28.13;;;25.35;;
54899;SDS011;40801;41.924;25.562;2022-12-29T08:47:59;23.55;;;21.08;;
54899;SDS011;40801;41.924;25.562;2022-12-29T08:50:25;23.77;;;21.58;;
54899;SDS011;40801;41.924;25.562;2022-12-29T08:52:50;30.48;;;27.60;;
54899;SDS011;40801;41.924;25.562;2022-12-29T08:55:15;20.63;;;18.63;;
54899;SDS011;40801;41.924;25.562;2022-12-29T08:57:41;20.80;;;18.65;;
54899;SDS011;40801;41.924;25.562;2022-12-29T09:00:06;23.88;;;19.00;;
54899;SDS011;40801;41.924;25.562;2022-12-29T09:02:33;22.33;;;19.83;;
54899;SDS011;40801;41.924;25.562;2022-12-29T09:04:58;25.15;;;22.75;;
54899;SDS011;40801;41.924;25.562;2022-12-29T09:07:25;22.88;;;20.63;;
54899;SDS011;40801;41.924;25.562;2022-12-29T09:09:50;28.33;;;25.65;;
54899;SDS011;40801;41.924;25.562;2022-12-29T09:12:16;20.33;;;18.30;;
54899;SDS011;40801;41.924;25.562;2022-12-29T09:14:42;27.52;;;24.80;;
54899;SDS011;40801;41.924;25.562;2022-12-29T09:17:09;30.48;;;27.58;;
54899;SDS011;40801;41.924;25.562;2022-12-29T09:19:53;18.45;;;16.70;;
54899;SDS011;40801;41.924;25.562;2022-12-29T09:22:19;18.95;;;17.23;;
54899;SDS011;40801;41.924;25.562;2022-12-29T09:24:44;18.52;;;16.88;;
54899;SDS011;40801;41.924;25.562;2022-12-29T09:27:10;20.23;;;18.10;;
54899;SDS011;40801;41.924;25.562;2022-12-29T09:29:35;22.08;;;20.00;;
54899;SDS011;40801;41.924;25.562;2022-12-29T09:32:01;18.77;;;17.00;;
54899;SDS011;40801;41.924;25.562;2022-12-29T09:34:26;20.00;;;17.90;;
54899;SDS011;40801;41.924;25.562;2022-12-29T09:36:52;21.73;;;19.85;;
54899;SDS011;40801;41.924;25.562;2022-12-29T09:39:17;21.77;;;19.77;;
54899;SDS011;40801;41.924;25.562;2022-12-29T09:44:54;27.35;;;24.63;;
54899;SDS011;40801;41.924;25.562;2022-12-29T09:47:21;23.13;;;21.02;;
54899;SDS011;40801;41.924;25.562;2022-12-29T09:49:58;22.90;;;20.80;;
54899;SDS011;40801;41.924;25.562;2022-12-29T09:52:40;21.15;;;19.00;;
54899;SDS011;40801;41.924;25.562;2022-12-29T09:57:48;33.60;;;30.42;;
54899;SDS011;40801;41.924;25.562;2022-12-29T10:00:22;22.55;;;20.35;;
54899;SDS011;40801;41.924;25.562;2022-12-29T10:02:54;21.40;;;19.60;;
54899;SDS011;40801;41.924;25.562;2022-12-29T10:08:17;30.60;;;27.73;;
54899;SDS011;40801;41.924;25.562;2022-12-29T10:16:36;28.00;;;25.42;;
54899;SDS011;40801;41.924;25.562;2022-12-29T10:19:17;22.52;;;20.38;;
54899;SDS011;40801;41.924;25.562;2022-12-29T10:24:31;20.55;;;18.75;;
54899;SDS011;40801;41.924;25.562;2022-12-29T10:27:02;23.85;;;21.75;;
54899;SDS011;40801;41.924;25.562;2022-12-29T10:29:36;23.95;;;21.88;;
54899;SDS011;40801;41.924;25.562;2022-12-29T10:37:47;19.23;;;17.27;;
54899;SDS011;40801;41.924;25.562;2022-12-29T10:40:12;21.52;;;19.58;;
54899;SDS011;40801;41.924;25.562;2022-12-29T10:42:45;19.67;;;17.77;;
54899;SDS011;40801;41.924;25.562;2022-12-29T10:45:15;22.48;;;19.48;;
54899;SDS011;40801;41.924;25.562;2022-12-29T10:48:26;22.73;;;20.65;;
54899;SDS011;40801;41.924;25.562;2022-12-29T10:50:37;39.08;;;35.47;;
54899;SDS011;40801;41.924;25.562;2022-12-29T10:53:07;33.72;;;31.02;;
54899;SDS011;40801;41.924;25.562;2022-12-29T10:55:41;18.45;;;16.80;;
54899;SDS011;40801;41.924;25.562;2022-12-29T10:58:07;18.27;;;16.65;;
54899;SDS011;40801;41.924;25.562;2022-12-29T11:00:38;20.80;;;19.00;;
54899;SDS011;40801;41.924;25.562;2022-12-29T11:08:19;20.65;;;18.85;;
54899;SDS011;40801;41.924;25.562;2022-12-29T11:11:00;20.08;;;18.40;;
54899;SDS011;40801;41.924;25.562;2022-12-29T11:13:28;20.45;;;18.63;;
54899;SDS011;40801;41.924;25.562;2022-12-29T11:15:55;21.92;;;19.85;;
54899;SDS011;40801;41.924;25.562;2022-12-29T11:18:22;19.05;;;17.35;;
54899;SDS011;40801;41.924;25.562;2022-12-29T11:20:56;20.90;;;18.67;;
54899;SDS011;40801;41.924;25.562;2022-12-29T11:23:43;20.25;;;18.55;;
54899;SDS011;40801;41.924;25.562;2022-12-29T11:26:14;21.67;;;19.65;;
54899;SDS011;40801;41.924;25.562;2022-12-29T11:28:47;20.63;;;18.73;;
54899;SDS011;40801;41.924;25.562;2022-12-29T11:31:42;19.08;;;17.40;;
54899;SDS011;40801;41.924;25.562;2022-12-29T11:34:31;20.77;;;18.77;;
54899;SDS011;40801;41.924;25.562;2022-12-29T11:37:06;22.75;;;20.75;;
54899;SDS011;40801;41.924;25.562;2022-12-29T11:42:33;26.67;;;24.15;;
54899;SDS011;40801;41.924;25.562;2022-12-29T11:45:13;20.77;;;18.85;;
54899;SDS011;40801;41.924;25.562;2022-12-29T11:47:42;23.20;;;21.05;;
54899;SDS011;40801;41.924;25.562;2022-12-29T11:50:22;19.65;;;17.83;;
54899;SDS011;40801;41.924;25.562;2022-12-29T11:53:00;19.90;;;17.90;;
54899;SDS011;40801;41.924;25.562;2022-12-29T11:55:30;18.88;;;17.30;;
54899;SDS011;40801;41.924;25.562;2022-12-29T11:57:57;20.05;;;18.17;;
54899;SDS011;40801;41.924;25.562;2022-12-29T12:00:27;17.10;;;15.70;;
54899;SDS011;40801;41.924;25.562;2022-12-29T12:03:00;19.85;;;18.15;;
54899;SDS011;40801;41.924;25.562;2022-12-29T12:10:33;20.00;;;18.33;;
54899;SDS011;40801;41.924;25.562;2022-12-29T12:13:21;21.73;;;19.83;;
54899;SDS011;40801;41.924;25.562;2022-12-29T12:24:15;19.85;;;17.90;;
54899;SDS011;40801;41.924;25.562;2022-12-29T12:27:01;37.47;;;30.50;;
54899;SDS011;40801;41.924;25.562;2022-12-29T12:32:21;28.35;;;24.70;;
54899;SDS011;40801;41.924;25.562;2022-12-29T12:34:59;27.40;;;24.73;;
54899;SDS011;40801;41.924;25.562;2022-12-29T12:50:38;30.05;;;27.13;;
54899;SDS011;40801;41.924;25.562;2022-12-29T12:58:52;17.80;;;16.25;;
54899;SDS011;40801;41.924;25.562;2022-12-29T13:01:29;17.02;;;15.27;;
54899;SDS011;40801;41.924;25.562;2022-12-29T13:19:49;21.35;;;19.35;;
54899;SDS011;40801;41.924;25.562;2022-12-29T13:25:04;16.95;;;15.35;;
54899;SDS011;40801;41.924;25.562;2022-12-29T13:33:17;15.45;;;14.13;;
54899;SDS011;40801;41.924;25.562;2022-12-29T13:38:21;20.20;;;18.40;;
54899;SDS011;40801;41.924;25.562;2022-12-29T13:43:22;15.93;;;14.48;;
54899;SDS011;40801;41.924;25.562;2022-12-29T13:45:52;18.48;;;16.95;;
54899;SDS011;40801;41.924;25.562;2022-12-29T13:48:25;27.23;;;24.67;;
54899;SDS011;40801;41.924;25.562;2022-12-29T13:51:06;27.67;;;25.27;;
54899;SDS011;40801;41.924;25.562;2022-12-29T13:58:59;21.38;;;19.50;;
54899;SDS011;40801;41.924;25.562;2022-12-29T14:04:14;25.17;;;22.75;;
54899;SDS011;40801;41.924;25.562;2022-12-29T14:06:49;23.05;;;20.90;;
54899;SDS011;40801;41.924;25.562;2022-12-29T14:20:35;28.42;;;25.70;;
54899;SDS011;40801;41.924;25.562;2022-12-29T14:28:34;34.75;;;31.40;;
54899;SDS011;40801;41.924;25.562;2022-12-29T14:33:40;36.35;;;32.70;;
54899;SDS011;40801;41.924;25.562;2022-12-29T14:36:42;38.70;;;35.08;;
54899;SDS011;40801;41.924;25.562;2022-12-29T14:44:29;39.60;;;35.70;;
54899;SDS011;40801;41.924;25.562;2022-12-29T14:49:25;39.67;;;35.53;;
54899;SDS011;40801;41.924;25.562;2022-12-29T14:52:06;46.75;;;41.90;;
54899;SDS011;40801;41.924;25.562;2022-12-29T14:57:32;53.10;;;44.30;;
54899;SDS011;40801;41.924;25.562;2022-12-29T15:00:22;58.47;;;48.60;;
54899;SDS011;40801;41.924;25.562;2022-12-29T15:02:49;58.95;;;49.13;;
54899;SDS011;40801;41.924;25.562;2022-12-29T15:08:32;91.25;;;65.72;;
54899;SDS011;40801;41.924;25.562;2022-12-29T15:11:11;94.50;;;74.65;;
54899;SDS011;40801;41.924;25.562;2022-12-29T15:13:40;97.57;;;76.85;;
54899;SDS011;40801;41.924;25.562;2022-12-29T15:19:01;82.13;;;66.65;;
54899;SDS011;40801;41.924;25.562;2022-12-29T15:21:34;86.28;;;74.82;;
54899;SDS011;40801;41.924;25.562;2022-12-29T15:24:00;87.28;;;67.10;;
54899;SDS011;40801;41.924;25.562;2022-12-29T15:26:41;94.03;;;73.32;;
54899;SDS011;40801;41.924;25.562;2022-12-29T15:32:17;96.20;;;72.97;;
54899;SDS011;40801;41.924;25.562;2022-12-29T15:34:46;100.22;;;77.45;;
54899;SDS011;40801;41.924;25.562;2022-12-29T15:37:16;105.03;;;89.40;;
54899;SDS011;40801;41.924;25.562;2022-12-29T15:39:43;104.80;;;91.95;;
54899;SDS011;40801;41.924;25.562;2022-12-29T15:44:59;102.32;;;87.82;;
54899;SDS011;40801;41.924;25.562;2022-12-29T15:47:29;103.57;;;85.85;;
54899;SDS011;40801;41.924;25.562;2022-12-29T15:50:03;104.30;;;89.03;;
54899;SDS011;40801;41.924;25.562;2022-12-29T15:52:33;111.32;;;95.32;;
54899;SDS011;40801;41.924;25.562;2022-12-29T15:54:58;120.22;;;105.38;;
54899;SDS011;40801;41.924;25.562;2022-12-29T15:57:28;122.97;;;104.90;;
54899;SDS011;40801;41.924;25.562;2022-12-29T15:59:55;143.90;;;120.22;;
54899;SDS011;40801;41.924;25.562;2022-12-29T16:02:24;140.05;;;117.78;;
54899;SDS011;40801;41.924;25.562;2022-12-29T16:04:50;157.70;;;124.13;;
54899;SDS011;40801;41.924;25.562;2022-12-29T16:07:34;154.65;;;126.57;;
54899;SDS011;40801;41.924;25.562;2022-12-29T16:10:01;173.25;;;136.95;;
54899;SDS011;40801;41.924;25.562;2022-12-29T16:12:36;176.13;;;141.73;;
54899;SDS011;40801;41.924;25.562;2022-12-29T16:17:31;228.00;;;169.90;;
54899;SDS011;40801;41.924;25.562;2022-12-29T16:22:28;267.13;;;191.95;;
54899;SDS011;40801;41.924;25.562;2022-12-29T16:25:41;255.25;;;180.75;;
54899;SDS011;40801;41.924;25.562;2022-12-29T16:27:48;264.55;;;185.70;;
54899;SDS011;40801;41.924;25.562;2022-12-29T16:30:19;247.45;;;177.70;;
54899;SDS011;40801;41.924;25.562;2022-12-29T16:32:50;237.40;;;172.00;;
54899;SDS011;40801;41.924;25.562;2022-12-29T16:37:46;184.43;;;141.15;;
54899;SDS011;40801;41.924;25.562;2022-12-29T16:40:59;205.82;;;159.05;;
54899;SDS011;40801;41.924;25.562;2022-12-29T16:43:04;209.45;;;157.02;;
54899;SDS011;40801;41.924;25.562;2022-12-29T16:50:38;157.18;;;125.95;;
54899;SDS011;40801;41.924;25.562;2022-12-29T16:53:06;130.93;;;102.53;;
54899;SDS011;40801;41.924;25.562;2022-12-29T16:55:50;118.15;;;96.18;;
54899;SDS011;40801;41.924;25.562;2022-12-29T16:58:24;119.28;;;93.55;;
54899;SDS011;40801;41.924;25.562;2022-12-29T17:00:55;117.05;;;92.80;;
54899;SDS011;40801;41.924;25.562;2022-12-29T17:03:23;115.07;;;91.80;;
54899;SDS011;40801;41.924;25.562;2022-12-29T17:05:56;122.63;;;96.55;;
54899;SDS011;40801;41.924;25.562;2022-12-29T17:08:21;122.18;;;98.22;;
54899;SDS011;40801;41.924;25.562;2022-12-29T17:10:54;125.10;;;101.90;;
54899;SDS011;40801;41.924;25.562;2022-12-29T17:13:40;122.03;;;94.88;;
54899;SDS011;40801;41.924;25.562;2022-12-29T17:16:06;123.43;;;98.38;;
54899;SDS011;40801;41.924;25.562;2022-12-29T17:18:34;139.82;;;110.68;;
54899;SDS011;40801;41.924;25.562;2022-12-29T17:21:00;128.38;;;102.68;;
54899;SDS011;40801;41.924;25.562;2022-12-29T17:23:26;111.60;;;93.32;;
54899;SDS011;40801;41.924;25.562;2022-12-29T17:25:52;97.50;;;84.35;;
54899;SDS011;40801;41.924;25.562;2022-12-29T17:28:20;89.82;;;78.72;;
54899;SDS011;40801;41.924;25.562;2022-12-29T17:30:46;80.93;;;71.43;;
54899;SDS011;40801;41.924;25.562;2022-12-29T17:33:12;80.95;;;69.88;;
54899;SDS011;40801;41.924;25.562;2022-12-29T17:35:40;77.75;;;68.88;;
54899;SDS011;40801;41.924;25.562;2022-12-29T17:38:47;82.25;;;68.50;;
54899;SDS011;40801;41.924;25.562;2022-12-29T17:43:20;83.68;;;70.75;;
54899;SDS011;40801;41.924;25.562;2022-12-29T17:45:46;82.00;;;69.05;;